createdAt,value
2023-03-10T04:00:13.309Z,1.00
2023-03-10T04:02:48.716Z,0.90
2023-03-10T04:05:18.229Z,0.85
2023-03-10T04:07:48.422Z,0.80
2023-03-10T04:10:19.389Z,0.73
2023-03-10T04:12:48.183Z,0.77
2023-03-10T04:15:16.537Z,1.00
2023-03-10T04:17:44.575Z,0.90
2023-03-10T04:20:14.818Z,1.10
2023-03-10T04:22:46.261Z,0.95
2023-03-10T04:25:14.969Z,1.10
2023-03-10T04:27:43.126Z,0.80
2023-03-10T04:30:13.797Z,1.27
2023-03-10T04:32:47.810Z,1.10
2023-03-10T04:35:18.517Z,1.00
2023-03-10T04:37:46.624Z,1.10
2023-03-10T04:40:16.429Z,1.13
2023-03-10T04:42:45.323Z,1.15
2023-03-10T04:45:14.886Z,0.98
2023-03-10T04:47:44.507Z,1.20
2023-03-10T04:50:17.371Z,1.10
2023-03-10T04:52:49.944Z,1.33
2023-03-10T04:55:19.613Z,1.00
2023-03-10T04:57:47.493Z,1.25
2023-03-10T05:00:15.828Z,1.35
2023-03-10T05:02:44.384Z,1.17
2023-03-10T05:05:12.856Z,1.00
2023-03-10T05:07:44.389Z,1.30
2023-03-10T05:10:14.356Z,1.48
2023-03-10T05:12:42.996Z,1.98
2023-03-10T05:15:12.862Z,2.30
2023-03-10T05:17:40.708Z,3.88
2023-03-10T05:20:10.558Z,3.42
2023-03-10T05:22:39.385Z,3.38
2023-03-10T05:25:11.011Z,2.30
2023-03-10T05:27:40.751Z,1.52
2023-03-10T05:30:12.252Z,1.95
2023-03-10T05:32:40.240Z,6.50
2023-03-10T05:35:09.158Z,12.43
2023-03-10T05:37:40.509Z,9.20
2023-03-10T05:40:11.554Z,7.80
2023-03-10T05:42:40.934Z,6.70
2023-03-10T05:45:11.217Z,2.78
2023-03-10T05:47:39.374Z,2.40
2023-03-10T05:50:08.600Z,2.15
2023-03-10T05:52:38.243Z,1.83
2023-03-10T05:55:08.303Z,1.95
2023-03-10T05:57:36.391Z,1.92
2023-03-10T06:00:10.105Z,1.55
2023-03-10T06:02:46.810Z,2.25
2023-03-10T06:05:14.878Z,1.35
2023-03-10T06:07:43.990Z,1.40
2023-03-10T06:10:12.333Z,1.40
2023-03-10T06:12:40.180Z,1.60
2023-03-10T06:15:10.367Z,1.90
2023-03-10T06:17:38.201Z,2.00
2023-03-10T06:20:07.103Z,1.83
2023-03-10T06:22:34.965Z,1.70
2023-03-10T06:25:02.969Z,1.25
2023-03-10T06:27:31.506Z,1.55
2023-03-10T06:29:59.678Z,1.27
2023-03-10T06:32:28.918Z,1.27
2023-03-10T06:34:59.330Z,1.23
2023-03-10T06:37:28.019Z,1.45
2023-03-10T06:39:55.862Z,1.33
2023-03-10T06:42:23.902Z,1.20
2023-03-10T06:44:55.503Z,1.10
2023-03-10T06:47:23.401Z,1.60
2023-03-10T06:49:54.559Z,1.50
2023-03-10T06:52:22.473Z,1.25
2023-03-10T06:54:50.399Z,1.20
2023-03-10T06:57:20.922Z,1.25
2023-03-10T06:59:48.949Z,1.15
2023-03-10T07:02:16.809Z,1.10
2023-03-10T07:04:44.731Z,1.10
2023-03-10T07:07:14.740Z,0.90
2023-03-10T07:09:42.585Z,1.10
2023-03-10T07:12:10.597Z,0.82
2023-03-10T07:14:38.424Z,1.00
2023-03-10T07:17:06.457Z,0.90
2023-03-10T07:19:34.365Z,0.90
2023-03-10T07:22:02.221Z,1.17
2023-03-10T07:24:31.429Z,1.00
2023-03-10T07:27:00.414Z,0.90
2023-03-10T07:29:28.526Z,0.85
2023-03-10T07:31:56.394Z,1.00
2023-03-10T07:34:24.460Z,0.95
2023-03-10T07:36:52.300Z,0.82
2023-03-10T07:39:20.988Z,1.13
2023-03-10T07:41:50.177Z,0.90
2023-03-10T07:44:18.092Z,0.95
2023-03-10T07:46:45.931Z,0.90
2023-03-10T07:49:13.757Z,0.80
2023-03-10T07:51:41.598Z,1.10
2023-03-10T07:54:09.425Z,0.88
2023-03-10T07:56:37.289Z,0.77
2023-03-10T07:59:06.465Z,0.80
2023-03-10T08:01:34.464Z,0.70
2023-03-10T08:04:02.442Z,0.75
2023-03-10T08:06:32.766Z,0.70
2023-03-10T08:09:00.643Z,0.60
2023-03-10T08:11:28.651Z,0.80
2023-03-10T08:13:56.588Z,0.68
2023-03-10T08:16:26.552Z,0.95
2023-03-10T08:18:54.699Z,1.13
2023-03-10T08:21:23.155Z,1.00
2023-03-10T08:23:51.005Z,0.90
2023-03-10T08:26:20.139Z,0.82
2023-03-10T08:28:49.160Z,1.88
2023-03-10T08:31:19.713Z,2.88
2023-03-10T08:33:50.052Z,2.38
2023-03-10T08:36:19.946Z,1.40
2023-03-10T08:38:48.610Z,2.20
2023-03-10T08:41:18.651Z,2.20
2023-03-10T08:43:49.286Z,1.25
2023-03-10T08:46:18.210Z,0.82
2023-03-10T08:48:46.152Z,1.23
2023-03-10T08:51:16.361Z,2.83
2023-03-10T08:53:46.962Z,1.60
2023-03-10T08:56:15.328Z,1.00
2023-03-10T08:58:43.873Z,2.15
2023-03-10T09:01:11.984Z,1.60
2023-03-10T09:03:40.917Z,1.13
2023-03-10T09:06:09.015Z,1.20
2023-03-10T09:08:39.657Z,1.42
2023-03-10T09:11:07.790Z,2.45
2023-03-10T09:13:35.829Z,1.65
2023-03-10T09:16:03.841Z,1.20
2023-03-10T09:18:31.749Z,1.40
2023-03-10T09:20:59.576Z,1.60
2023-03-10T09:23:27.545Z,1.60
2023-03-10T09:25:56.708Z,1.60
2023-03-10T09:28:25.029Z,1.50
2023-03-10T09:30:54.877Z,1.38
2023-03-10T09:33:23.834Z,1.10
2023-03-10T09:36:05.648Z,1.38
2023-03-10T09:38:34.626Z,1.40
2023-03-10T09:41:18.866Z,1.00
2023-03-10T09:43:50.870Z,1.20
2023-03-10T09:46:25.547Z,0.90
2023-03-10T09:49:01.892Z,1.23
2023-03-10T09:51:31.498Z,1.13
2023-03-10T09:54:21.492Z,1.17
2023-03-10T09:56:50.706Z,1.17
2023-03-10T09:59:26.144Z,0.88
2023-03-10T10:01:54.987Z,1.08
2023-03-10T10:04:26.501Z,1.30
2023-03-10T10:06:56.024Z,1.10
2023-03-10T10:09:29.843Z,1.25
2023-03-10T10:11:59.042Z,0.90
2023-03-10T10:14:31.444Z,1.08
2023-03-10T10:17:10.637Z,1.10
2023-03-10T10:19:40.955Z,1.00
2023-03-10T10:22:16.492Z,1.10
2023-03-10T10:24:59.656Z,1.13
2023-03-10T10:27:31.262Z,1.08
2023-03-10T10:29:59.301Z,1.45
2023-03-10T10:32:27.174Z,0.88
2023-03-10T10:35:14.809Z,0.93
2023-03-10T10:37:43.606Z,1.20
2023-03-10T10:40:25.012Z,1.00
2023-03-10T10:42:55.666Z,1.30
2023-03-10T10:45:28.069Z,1.30
2023-03-10T10:47:56.250Z,1.30
2023-03-10T10:50:26.286Z,1.33
2023-03-10T10:53:19.382Z,1.15
2023-03-10T10:55:49.036Z,1.10
2023-03-10T10:58:31.175Z,1.40
2023-03-10T11:01:01.662Z,1.17
2023-03-10T11:03:33.464Z,1.40
2023-03-10T11:06:02.938Z,1.20
2023-03-10T11:08:37.412Z,1.25
2023-03-10T11:11:16.920Z,1.20
2023-03-10T11:13:59.348Z,0.93
2023-03-10T11:16:33.715Z,0.73
2023-03-10T11:19:08.384Z,0.60
2023-03-10T11:21:42.818Z,0.50
2023-03-10T11:24:16.644Z,0.47
2023-03-10T11:26:53.358Z,0.52
2023-03-10T11:29:38.368Z,0.60
2023-03-10T11:32:14.467Z,0.47
2023-03-10T11:34:48.386Z,0.57
2023-03-10T11:37:25.041Z,0.55
2023-03-10T11:39:58.944Z,0.73
2023-03-10T11:42:34.031Z,0.70
2023-03-10T11:45:21.032Z,0.77
2023-03-10T11:47:57.630Z,0.90
2023-03-10T11:50:34.504Z,0.80
2023-03-10T11:53:07.497Z,0.80
2023-03-10T11:55:36.749Z,0.80
2023-03-10T11:58:06.548Z,1.00
2023-03-10T12:00:40.813Z,0.77
2023-03-10T12:03:18.163Z,0.57
2023-03-10T12:05:51.074Z,0.80
2023-03-10T12:08:21.939Z,0.70
2023-03-10T12:10:50.957Z,0.80
2023-03-10T12:13:25.208Z,0.60
2023-03-10T12:15:57.458Z,0.60
2023-03-10T12:18:26.913Z,0.70
2023-03-10T12:21:19.835Z,0.80
2023-03-10T12:23:49.215Z,0.68
2023-03-10T12:26:37.383Z,1.00
2023-03-10T12:29:31.918Z,1.00
2023-03-10T12:32:01.449Z,0.90
2023-03-10T12:34:32.105Z,1.00
2023-03-10T12:37:08.335Z,1.15
2023-03-10T12:39:41.689Z,1.30
2023-03-10T12:42:29.365Z,1.23
2023-03-10T12:45:17.955Z,1.00
2023-03-10T12:48:01.522Z,1.50
2023-03-10T12:50:42.091Z,0.98
2023-03-10T12:53:27.310Z,0.65
2023-03-10T12:56:21.251Z,0.77
2023-03-10T12:58:55.528Z,0.90
2023-03-10T13:01:26.467Z,1.67
2023-03-10T13:03:56.507Z,2.80
2023-03-10T13:06:30.672Z,3.78
2023-03-10T13:09:03.331Z,3.25
2023-03-10T13:11:35.732Z,4.15
2023-03-10T13:14:10.799Z,3.08
2023-03-10T13:16:38.827Z,1.10
2023-03-10T13:19:08.193Z,1.65
2023-03-10T13:21:38.082Z,2.22
2023-03-10T13:24:24.998Z,3.13
2023-03-10T13:27:07.799Z,1.55
2023-03-10T13:29:35.772Z,2.90
2023-03-10T13:32:03.755Z,3.75
2023-03-10T13:34:36.658Z,2.15
2023-03-10T13:37:05.944Z,2.95
2023-03-10T13:39:34.089Z,2.42
2023-03-10T13:42:04.186Z,3.03
2023-03-10T13:44:35.385Z,2.80
2023-03-10T13:47:06.332Z,3.03
2023-03-10T13:49:36.943Z,2.47
2023-03-10T13:52:07.469Z,4.07
2023-03-10T13:54:36.642Z,3.42
2023-03-10T13:57:11.425Z,4.82
2023-03-10T13:59:39.552Z,6.55
2023-03-10T14:02:16.709Z,5.10
2023-03-10T14:04:48.456Z,4.03
2023-03-10T14:07:19.287Z,3.42
2023-03-10T14:09:49.111Z,3.83
2023-03-10T14:12:36.707Z,2.40
2023-03-10T14:15:12.812Z,1.40
2023-03-10T14:17:41.509Z,1.30
2023-03-10T14:20:12.464Z,1.20
2023-03-10T14:22:43.124Z,0.90
2023-03-10T14:25:19.316Z,0.57
2023-03-10T14:27:49.485Z,0.70
2023-03-10T14:30:21.640Z,0.85
2023-03-10T14:32:50.137Z,0.50
2023-03-10T14:35:21.515Z,0.47
2023-03-10T14:37:49.445Z,0.40
2023-03-10T14:40:18.122Z,0.60
2023-03-10T14:42:47.646Z,0.55
2023-03-10T14:45:28.140Z,0.70
2023-03-10T14:47:57.599Z,0.40
2023-03-10T14:50:28.838Z,0.32
2023-03-10T14:52:56.807Z,0.40
2023-03-10T14:55:25.117Z,0.60
2023-03-10T14:57:57.638Z,0.30
2023-03-10T15:00:25.984Z,0.35
2023-03-10T15:02:53.859Z,0.40
2023-03-10T15:05:27.615Z,0.63
2023-03-10T15:07:59.023Z,0.63
2023-03-10T15:10:27.330Z,0.30
2023-03-10T15:12:55.181Z,2.42
2023-03-10T15:15:25.005Z,0.40
2023-03-10T15:17:53.233Z,0.50
2023-03-10T15:20:23.119Z,1.10
2023-03-10T15:22:52.261Z,0.60
2023-03-10T15:25:22.813Z,1.02
2023-03-10T15:27:52.172Z,1.95
2023-03-10T15:30:22.516Z,1.97
2023-03-10T15:32:50.786Z,1.73
2023-03-10T15:35:20.273Z,1.50
2023-03-10T15:37:48.775Z,0.97
2023-03-10T15:40:20.095Z,0.85
2023-03-10T15:42:50.011Z,0.60
2023-03-10T15:45:19.191Z,0.52
2023-03-10T15:47:47.750Z,0.95
2023-03-10T15:50:18.217Z,1.23
2023-03-10T15:52:48.053Z,1.10
2023-03-10T15:55:16.709Z,0.50
2023-03-10T15:57:45.029Z,0.70
2023-03-10T16:00:16.779Z,0.50
2023-03-10T16:02:44.788Z,0.57
2023-03-10T16:05:12.672Z,1.00
2023-03-10T16:07:40.575Z,0.80
2023-03-10T16:10:11.029Z,0.65
2023-03-10T16:12:38.924Z,0.50
2023-03-10T16:15:07.664Z,0.65
2023-03-10T16:17:36.895Z,0.60
2023-03-10T16:20:08.910Z,0.50
2023-03-10T16:22:40.363Z,0.75
2023-03-10T16:25:09.974Z,0.40
2023-03-10T16:27:37.819Z,0.60
2023-03-10T16:30:06.633Z,0.43
2023-03-10T16:32:36.030Z,0.70
2023-03-10T16:35:04.025Z,0.90
2023-03-10T16:37:32.045Z,0.63
2023-03-10T16:40:00.100Z,1.05
2023-03-10T16:42:27.952Z,1.10
2023-03-10T16:44:56.911Z,1.20
2023-03-10T16:47:24.987Z,3.13
2023-03-10T16:49:54.398Z,1.80
2023-03-10T16:52:22.439Z,3.03
2023-03-10T16:54:50.264Z,6.00
2023-03-10T16:57:18.111Z,3.03
2023-03-10T16:59:46.373Z,7.53
2023-03-10T17:02:16.037Z,10.03
2023-03-10T17:04:44.624Z,1.90
2023-03-10T17:07:14.172Z,1.70
2023-03-10T17:09:42.053Z,1.47
2023-03-10T17:12:10.260Z,2.10
2023-03-10T17:14:38.097Z,1.10
2023-03-10T17:17:07.831Z,2.00
2023-03-10T17:19:35.954Z,1.00
2023-03-10T17:22:04.046Z,0.90
2023-03-10T17:24:33.331Z,0.70
2023-03-10T17:27:01.225Z,0.90
2023-03-10T17:29:29.082Z,0.53
2023-03-10T17:31:57.027Z,0.60
2023-03-10T17:34:26.983Z,0.90
2023-03-10T17:36:54.826Z,1.10
2023-03-10T17:39:23.927Z,1.40
2023-03-10T17:41:54.359Z,1.10
2023-03-10T17:44:22.671Z,0.80
2023-03-10T17:46:52.467Z,1.30
2023-03-10T17:49:20.388Z,1.03
2023-03-10T17:51:48.364Z,0.70
2023-03-10T17:54:19.972Z,0.93
2023-03-10T17:56:48.825Z,1.20
2023-03-10T17:59:18.088Z,1.30
2023-03-10T18:01:47.294Z,1.13
2023-03-10T18:04:15.113Z,0.80
2023-03-10T18:06:43.679Z,1.17
2023-03-10T18:09:14.256Z,1.20
2023-03-10T18:11:42.333Z,0.90
2023-03-10T18:14:10.372Z,0.57
2023-03-10T18:16:40.754Z,0.70
2023-03-10T18:19:10.907Z,1.30
2023-03-10T18:21:39.391Z,1.30
2023-03-10T18:24:08.663Z,1.10
2023-03-10T18:26:37.878Z,0.47
2023-03-10T18:29:05.853Z,1.03
2023-03-10T18:31:34.493Z,0.90
2023-03-10T18:34:04.200Z,1.40
2023-03-10T18:36:33.779Z,1.60
2023-03-10T18:39:03.859Z,1.00
2023-03-10T18:41:32.616Z,1.20
2023-03-10T18:44:01.021Z,1.23
2023-03-10T18:46:29.069Z,1.40
2023-03-10T18:48:57.012Z,1.00
2023-03-10T18:51:27.692Z,1.30
2023-03-10T18:53:56.332Z,1.00
2023-03-10T18:56:25.753Z,2.00
2023-03-10T18:58:53.936Z,1.10
2023-03-10T19:01:22.383Z,1.00
2023-03-10T19:03:50.315Z,1.30
2023-03-10T19:06:18.269Z,1.15
2023-03-10T19:08:47.540Z,1.30
2023-03-10T19:11:15.765Z,1.30
2023-03-10T19:13:44.990Z,2.33
2023-03-10T19:16:13.304Z,3.20
2023-03-10T19:18:41.276Z,2.97
2023-03-10T19:21:09.770Z,2.03
2023-03-10T19:23:37.849Z,3.77
2023-03-10T19:26:08.851Z,3.60
2023-03-10T19:28:37.735Z,3.00
2023-03-10T19:31:09.734Z,3.00
2023-03-10T19:33:39.699Z,2.60
2023-03-10T19:36:11.685Z,2.10
2023-03-10T19:38:40.599Z,2.27
2023-03-10T19:41:14.465Z,1.90
2023-03-10T19:43:43.076Z,1.80
2023-03-10T19:46:12.819Z,1.80
2023-03-10T19:48:41.304Z,1.60
2023-03-10T19:51:09.890Z,1.60
2023-03-10T19:53:37.725Z,1.77
2023-03-10T19:56:07.588Z,1.90
2023-03-10T19:58:38.173Z,1.70
2023-03-10T20:01:06.139Z,1.80
2023-03-10T20:03:34.604Z,1.70
2023-03-10T20:06:04.123Z,1.73
2023-03-10T20:08:33.962Z,1.43
2023-03-10T20:11:02.796Z,1.83
2023-03-10T20:13:31.292Z,1.60
2023-03-10T20:16:00.762Z,1.70
2023-03-10T20:18:28.641Z,1.73
2023-03-10T20:20:56.570Z,1.50
2023-03-10T20:23:24.971Z,1.40
2023-03-10T20:26:01.245Z,1.73
2023-03-10T20:28:29.200Z,1.80
2023-03-10T20:30:57.034Z,1.70
2023-03-10T20:33:26.368Z,1.60
2023-03-10T20:35:54.822Z,1.50
2023-03-10T20:38:23.045Z,1.57
2023-03-10T20:40:50.901Z,1.60
2023-03-10T20:43:19.196Z,1.73
2023-03-10T20:45:47.071Z,1.60
2023-03-10T20:48:14.946Z,1.50
2023-03-10T20:50:44.136Z,1.37
2023-03-10T20:53:12.045Z,1.43
2023-03-10T20:55:42.710Z,2.10
2023-03-10T20:58:10.912Z,1.50
2023-03-10T21:00:38.762Z,1.40
2023-03-10T21:03:06.925Z,1.50
2023-03-10T21:05:34.897Z,1.23
2023-03-10T21:08:04.264Z,1.40
2023-03-10T21:10:33.020Z,1.40
2023-03-10T21:13:00.866Z,1.40
2023-03-10T21:15:28.700Z,1.30
2023-03-10T21:17:57.184Z,1.17
2023-03-10T21:20:25.211Z,1.10
2023-03-10T21:22:53.063Z,1.40
2023-03-10T21:25:24.468Z,1.20
2023-03-10T21:27:55.682Z,1.40
2023-03-10T21:30:23.587Z,1.33
2023-03-10T21:32:51.570Z,1.20
2023-03-10T21:35:19.685Z,1.40
2023-03-10T21:37:48.670Z,2.17
2023-03-10T21:40:19.681Z,7.10
2023-03-10T21:42:49.415Z,1.47
2023-03-10T21:45:20.986Z,1.30
2023-03-10T21:47:48.954Z,1.07
2023-03-10T21:50:17.638Z,1.10
2023-03-10T21:52:46.244Z,1.07
2023-03-10T21:55:19.431Z,1.20
2023-03-10T21:57:49.201Z,1.20
2023-03-10T22:00:19.509Z,1.10
2023-03-10T22:02:47.727Z,1.20
2023-03-10T22:05:17.423Z,1.30
2023-03-10T22:07:46.087Z,1.10
2023-03-10T22:10:14.964Z,1.20
2023-03-10T22:12:42.787Z,1.23
2023-03-10T22:15:17.050Z,1.20
2023-03-10T22:17:44.939Z,1.13
2023-03-10T22:20:16.185Z,1.20
2023-03-10T22:22:44.016Z,1.20
2023-03-10T22:25:12.292Z,1.30
2023-03-10T22:27:40.154Z,1.53
2023-03-10T22:30:09.072Z,1.40
2023-03-10T22:32:38.318Z,1.50
2023-03-10T22:35:06.869Z,1.37
2023-03-10T22:37:34.831Z,1.30
2023-03-10T22:40:02.684Z,1.50
2023-03-10T22:42:30.627Z,1.57
2023-03-10T22:44:58.528Z,1.53
2023-03-10T22:47:26.471Z,1.50
2023-03-10T22:49:55.626Z,1.90
2023-03-10T22:52:23.466Z,1.77
2023-03-10T22:54:51.319Z,1.30
2023-03-10T22:57:19.275Z,1.33
2023-03-10T22:59:47.148Z,1.50
